Time;durP1;ratioP1;P1;durP2;ratioP2;P2;SDS_P1;SDS_P2;PMS_P1;PMS_P2;Temp;Humidity;BMP_temperature;BMP_pressure;BME280_temperature;BME280_humidity;BME280_pressure;Samples;Min_cycle;Max_cycle;Signal;HPM_P1;HPM_P2
2021/04/29 00:01:57;;;;;;;21.33;18.23;;;;;;;;;;3577040;40;20680;-71
2021/04/29 00:04:23;;;;;;;18.38;16.58;;;;;;;;;;3573744;40;20480;-71
2021/04/29 00:06:50;;;;;;;17.10;15.40;;;;;;;;;;3576756;40;20396;-71
2021/04/29 00:09:16;;;;;;;16.25;14.57;;;;;;;;;;3577370;40;20392;-71
2021/04/29 00:11:42;;;;;;;16.43;14.80;;;;;;;;;;3575669;40;20503;-71
2021/04/29 00:14:10;;;;;;;18.27;16.35;;;;;;;;;;3568112;40;20401;-71
2021/04/29 00:16:36;;;;;;;18.65;16.77;;;;;;;;;;3572961;40;20428;-71
2021/04/29 00:19:04;;;;;;;17.73;16.02;;;;;;;;;;3576479;40;20430;-71
2021/04/29 00:21:30;;;;;;;18.77;16.88;;;;;;;;;;3577270;40;20392;-71
2021/04/29 00:23:56;;;;;;;19.05;17.02;;;;;;;;;;3577163;40;20490;-71
2021/04/29 00:26:22;;;;;;;17.45;15.65;;;;;;;;;;3577318;40;20380;-71
2021/04/29 00:28:49;;;;;;;17.13;15.50;;;;;;;;;;3577498;40;20428;-71
2021/04/29 00:31:15;;;;;;;17.47;15.70;;;;;;;;;;3577149;40;20390;-71
2021/04/29 00:33:41;;;;;;;18.85;16.85;;;;;;;;;;3579621;40;20645;-71
2021/04/29 00:36:08;;;;;;;17.88;15.98;;;;;;;;;;3573751;40;20404;-71
2021/04/29 00:38:34;;;;;;;18.60;16.70;;;;;;;;;;3577339;40;20388;-71
2021/04/29 00:41:02;;;;;;;19.33;17.40;;;;;;;;;;3576347;40;20392;-71
2021/04/29 00:43:28;;;;;;;20.52;18.48;;;;;;;;;;3576445;40;20392;-71
2021/04/29 00:45:54;;;;;;;18.75;16.75;;;;;;;;;;3577412;40;20399;-71
2021/04/29 00:48:21;;;;;;;17.88;16.08;;;;;;;;;;3576295;40;20388;-72
2021/04/29 00:50:47;;;;;;;18.92;16.92;;;;;;;;;;3568247;40;20405;-71
2021/04/29 00:53:14;;;;;;;17.58;15.70;;;;;;;;;;3575375;40;20412;-71
2021/04/29 00:55:40;;;;;;;16.75;15.15;;;;;;;;;;3577291;40;20530;-71
2021/04/29 00:58:06;;;;;;;19.97;17.97;;;;;;;;;;3576460;40;20428;-71
2021/04/29 01:00:34;;;;;;;19.40;17.40;;;;;;;;;;3576175;40;20768;-70
2021/04/29 01:05:32;;;;;;;17.35;15.48;;;12.90;99.90;;;;;;3563793;40;20440;-69
2021/04/29 01:08:03;;;;;;;19.42;17.17;;;12.60;99.90;;;;;;3565339;40;20386;-69
2021/04/29 01:10:36;;;;;;;17.65;15.85;;;12.60;99.90;;;;;;3565899;40;20404;-69
2021/04/29 01:13:06;;;;;;;19.05;17.05;;;12.60;99.90;;;;;;3564218;40;20370;-69
2021/04/29 01:15:34;;;;;;;17.20;15.45;;;12.60;99.90;;;;;;3565710;40;20755;-69
2021/04/29 01:18:01;;;;;;;18.47;16.60;;;12.70;99.90;;;;;;3565747;40;20374;-68
2021/04/29 01:20:36;;;;;;;17.58;15.77;;;12.70;99.90;;;;;;3562034;40;20412;-69
2021/04/29 01:23:11;;;;;;;17.35;15.63;;;12.60;99.90;;;;;;3566816;40;20822;-68
2021/04/29 01:25:41;;;;;;;17.70;15.90;;;12.60;99.90;;;;;;3554102;40;20383;-68
2021/04/29 01:28:09;;;;;;;17.02;15.32;;;12.70;99.90;;;;;;3558291;40;20380;-69
2021/04/29 01:30:36;;;;;;;18.80;16.90;;;;;;;;;;3563288;40;20486;-69
2021/04/29 01:33:03;;;;;;;19.30;17.30;;;;;;;;;;3567108;40;20397;-69
2021/04/29 01:35:30;;;;;;;20.70;18.60;;;;;;;;;;3566803;40;20389;-69
2021/04/29 01:37:56;;;;;;;18.02;16.23;;;;;;;;;;3566776;40;20382;-69
2021/04/29 01:40:23;;;;;;;19.42;17.42;;;;;;;;;;3567054;40;20829;-69
2021/04/29 01:42:49;;;;;;;18.98;17.08;;;;;;;;;;3564332;40;20638;-68
2021/04/29 01:45:16;;;;;;;18.90;17.00;;;;;;;;;;3562185;40;20647;-69
2021/04/29 01:47:43;;;;;;;20.02;17.98;;;;;;;;;;3557870;40;20881;-69
2021/04/29 01:50:11;;;;;;;23.13;20.73;;;;;;;;;;3566856;40;20528;-68
2021/04/29 01:52:37;;;;;;;22.60;20.20;;;;;;;;;;3566442;40;20878;-69
2021/04/29 01:55:04;;;;;;;20.58;18.38;;;;;;;;;;3566828;40;20384;-69
2021/04/29 01:57:31;;;;;;;20.08;17.98;;;;;;;;;;3557363;40;20405;-69
2021/04/29 01:59:57;;;;;;;20.42;18.33;;;;;;;;;;3564016;40;20466;-68
2021/04/29 02:02:25;;;;;;;20.02;17.92;;;;;;;;;;3566408;40;20409;-69
2021/04/29 02:04:51;;;;;;;22.33;19.92;;;;;;;;;;3574744;40;20407;-69
2021/04/29 02:07:17;;;;;;;24.98;22.33;;;;;;;;;;3567142;40;20391;-69
2021/04/29 02:09:43;;;;;;;22.52;20.20;;;;;;;;;;3576759;40;20423;-69
2021/04/29 02:12:10;;;;;;;24.15;21.42;;;;;;;;;;3576711;40;20415;-69
2021/04/29 02:14:39;;;;;;;20.83;18.63;;;;;;;;;;3576710;40;20387;-68
2021/04/29 02:17:06;;;;;;;21.30;18.08;;;;;;;;;;3577289;40;20609;-69
2021/04/29 02:19:34;;;;;;;19.50;17.50;;;;;;;;;;3577029;40;20381;-68
2021/04/29 02:22:00;;;;;;;18.92;17.02;;;;;;;;;;3575430;40;20646;-68
2021/04/29 02:24:27;;;;;;;18.65;16.70;;;;;;;;;;3575502;40;20435;-68
2021/04/29 02:26:54;;;;;;;19.15;17.25;;;;;;;;;;3567961;40;20393;-68
2021/04/29 02:29:20;;;;;;;20.33;17.33;;;;;;;;;;3570321;40;20372;-69
2021/04/29 02:31:47;;;;;;;19.55;17.45;;;;;;;;;;3573937;40;20424;-68
2021/04/29 02:34:14;;;;;;;18.52;16.70;;;;;;;;;;3573448;40;20695;-69
2021/04/29 02:36:41;;;;;;;21.13;18.42;;;;;;;;;;3576296;40;20439;-69
2021/04/29 02:39:07;;;;;;;21.25;19.10;;;;;;;;;;3576489;40;20371;-69
2021/04/29 02:41:34;;;;;;;18.15;16.27;;;;;;;;;;3573111;40;20466;-69
2021/04/29 02:44:00;;;;;;;19.67;17.58;;;;;;;;;;3573250;40;20428;-69
2021/04/29 02:46:27;;;;;;;21.52;19.23;;;;;;;;;;3576264;40;20774;-68
2021/04/29 02:48:53;;;;;;;18.80;16.80;;;;;;;;;;3576297;40;20376;-69
2021/04/29 02:51:20;;;;;;;23.60;20.88;;;;;;;;;;3573681;40;20383;-70
2021/04/29 02:53:48;;;;;;;20.30;18.15;;;;;;;;;;3573712;40;20380;-71
2021/04/29 02:56:14;;;;;;;20.93;18.53;;;;;;;;;;3576601;40;20573;-71
2021/04/29 02:58:44;;;;;;;20.85;18.65;;;;;;;;;;3573258;40;20440;-72
2021/04/29 03:01:11;;;;;;;22.33;19.83;;;;;;;;;;3576365;40;20390;-71
2021/04/29 03:03:37;;;;;;;20.58;18.45;;;;;;;;;;3576010;40;20406;-71
2021/04/29 03:06:04;;;;;;;20.88;18.63;;;;;;;;;;3576620;40;20387;-71
2021/04/29 03:08:30;;;;;;;21.70;19.45;;;;;;;;;;3576131;40;20372;-71
2021/04/29 03:10:57;;;;;;;20.30;18.10;;;;;;;;;;3573148;40;20389;-70
2021/04/29 03:13:24;;;;;;;20.98;18.25;;;;;;;;;;3576171;40;20458;-71
2021/04/29 03:15:50;;;;;;;20.60;18.30;;;;;;;;;;3576887;40;20756;-71
2021/04/29 03:18:17;;;;;;;21.33;18.98;;;;;;;;;;3568418;40;20431;-71
2021/04/29 03:20:46;;;;;;;20.97;18.87;;;;;;;;;;3577920;40;20383;-71
2021/04/29 03:23:13;;;;;;;20.52;18.48;;;;;;;;;;3577607;40;20400;-71
2021/04/29 03:25:39;;;;;;;21.37;19.07;;;;;;;;;;3574531;40;20388;-71
2021/04/29 03:28:06;;;;;;;20.50;18.40;;;;;;;;;;3574127;40;20376;-71
2021/04/29 03:30:32;;;;;;;22.53;20.13;;;;;;;;;;3577704;40;20384;-71
2021/04/29 03:32:59;;;;;;;25.05;22.45;;;;;;;;;;3577670;40;20380;-71
2021/04/29 03:35:25;;;;;;;21.77;19.53;;;;;;;;;;3577679;40;20662;-71
2021/04/29 03:37:51;;;;;;;20.73;18.63;;;;;;;;;;3577640;40;20441;-71
2021/04/29 03:40:17;;;;;;;19.50;17.52;;;;;;;;;;3574395;40;20401;-71
2021/04/29 03:42:44;;;;;;;19.05;17.05;;;;;;;;;;3577609;40;20765;-71
2021/04/29 03:45:11;;;;;;;19.88;17.83;;;;;;;;;;3573566;40;20477;-70
2021/04/29 03:47:38;;;;;;;20.33;17.67;;;;;;;;;;3577573;40;20387;-71
2021/04/29 03:50:05;;;;;;;19.95;17.90;;;;;;;;;;3573490;40;20481;-71
2021/04/29 03:52:31;;;;;;;20.63;18.35;;;;;;;;;;3574636;40;20741;-70
2021/04/29 03:54:57;;;;;;;18.92;16.92;;;;;;;;;;3577489;40;20383;-71
2021/04/29 03:57:23;;;;;;;18.45;16.55;;;;;;;;;;3577374;40;20735;-71
2021/04/29 03:59:50;;;;;;;22.98;20.17;;;;;;;;;;3574504;40;20404;-71
2021/04/29 04:02:17;;;;;;;23.00;20.60;;;;;;;;;;3573425;40;20462;-71
2021/04/29 04:04:43;;;;;;;25.08;21.83;;;;;;;;;;3572869;40;20404;-71
2021/04/29 04:07:09;;;;;;;26.88;22.73;;;;;;;;;;3573784;40;20776;-71
2021/04/29 04:09:35;;;;;;;30.20;25.67;;;;;;;;;;3573533;40;20364;-71
2021/04/29 04:12:01;;;;;;;30.50;27.13;;;;;;;;;;3575304;40;20387;-71
2021/04/29 04:14:28;;;;;;;24.17;21.55;;;;;;;;;;3567403;40;20728;-71
2021/04/29 04:16:54;;;;;;;27.38;23.08;;;;;;;;;;3573239;40;20385;-71
2021/04/29 04:19:21;;;;;;;21.48;19.27;;;;;;;;;;3562647;40;20765;-71
2021/04/29 04:21:47;;;;;;;20.17;18.08;;;;;;;;;;3575590;40;20388;-71
2021/04/29 04:24:13;;;;;;;20.63;18.45;;;;;;;;;;3575916;40;20427;-71
2021/04/29 04:26:40;;;;;;;20.70;18.50;;;;;;;;;;3575612;40;20443;-71
2021/04/29 04:29:06;;;;;;;18.33;16.42;;;;;;;;;;3567196;40;20408;-71
2021/04/29 04:31:32;;;;;;;17.60;15.70;;;;;;;;;;3572993;40;20411;-71
2021/04/29 04:33:58;;;;;;;20.87;18.63;;;;;;;;;;3563820;40;20404;-71
2021/04/29 04:36:25;;;;;;;19.67;17.52;;;;;;;;;;3575520;40;20443;-71
2021/04/29 04:38:51;;;;;;;19.67;17.58;;;;;;;;;;3572491;40;20388;-71
2021/04/29 04:41:18;;;;;;;19.95;17.95;;;;;;;;;;3572446;40;20383;-71
2021/04/29 04:43:44;;;;;;;21.05;18.33;;;;;;;;;;3577061;40;20399;-71
2021/04/29 04:46:10;;;;;;;25.38;20.60;;;;;;;;;;3576822;40;20382;-71
2021/04/29 04:48:37;;;;;;;20.23;18.13;;;;;;;;;;3576808;40;20787;-71
2021/04/29 04:51:03;;;;;;;19.60;17.20;;;;;;;;;;3558082;40;20415;-71
2021/04/29 04:53:30;;;;;;;20.23;18.10;;;;;;;;;;3576004;40;20427;-70
2021/04/29 04:55:56;;;;;;;21.00;18.80;;;;;;;;;;3577331;40;20380;-71
2021/04/29 04:58:23;;;;;;;19.83;17.77;;;;;;;;;;3566496;40;20400;-71
2021/04/29 05:00:49;;;;;;;19.75;17.75;;;;;;;;;;3575361;40;20398;-71
2021/04/29 05:03:16;;;;;;;20.35;18.17;;;;;;;;;;3576567;40;20423;-71
2021/04/29 05:05:42;;;;;;;22.27;19.02;;;;;;;;;;3572610;40;20404;-71
2021/04/29 05:08:08;;;;;;;21.17;18.98;;;;;;;;;;3575818;40;20753;-71
2021/04/29 05:10:36;;;;;;;21.27;18.92;;;;;;;;;;3576344;40;20484;-71
2021/04/29 05:13:02;;;;;;;19.85;17.52;;;;;;;;;;3571840;40;20421;-71
2021/04/29 05:15:29;;;;;;;20.03;17.93;;;;;;;;;;3574343;40;20966;-71
2021/04/29 05:17:55;;;;;;;20.05;17.95;;;;;;;;;;3576533;40;20388;-72
2021/04/29 05:20:21;;;;;;;21.10;18.83;;;;;;;;;;3566836;40;20753;-71
2021/04/29 05:22:47;;;;;;;20.67;18.50;;;;;;;;;;3573049;40;20426;-71
2021/04/29 05:25:14;;;;;;;19.58;17.45;;;;;;;;;;3574296;40;20661;-71
2021/04/29 05:27:41;;;;;;;18.92;17.00;;;;;;;;;;3571811;40;20380;-71
2021/04/29 05:30:08;;;;;;;18.88;16.88;;;;;;;;;;3571202;40;20382;-70
2021/04/29 05:32:34;;;;;;;19.45;17.40;;;;;;;;;;3577076;40;20391;-70
2021/04/29 05:35:00;;;;;;;20.70;18.60;;;;;;;;;;3573690;40;20402;-71
2021/04/29 05:37:27;;;;;;;20.40;18.25;;;;;;;;;;3576774;40;20394;-71
2021/04/29 05:39:53;;;;;;;22.27;19.90;;;;;;;;;;3572678;40;20410;-70
2021/04/29 05:42:19;;;;;;;22.60;20.20;;;;;;;;;;3576853;40;20483;-71
2021/04/29 05:44:47;;;;;;;24.30;20.65;;;;;;;;;;3576529;40;20801;-71
2021/04/29 05:47:13;;;;;;;24.08;20.90;;;;;;;;;;3575574;40;20391;-71
2021/04/29 05:49:40;;;;;;;23.42;20.83;;;;;;;;;;3576215;40;20652;-71
2021/04/29 05:52:07;;;;;;;26.08;22.00;;;;;;;;;;3576566;40;20812;-71
2021/04/29 05:54:34;;;;;;;25.05;22.33;;;;;;;;;;3576129;40;20398;-71
2021/04/29 05:57:00;;;;;;;26.58;22.90;;;;;;;;;;3576557;40;20695;-71
2021/04/29 05:59:27;;;;;;;26.45;23.67;;;;;;;;;;3573795;40;20388;-71
2021/04/29 06:01:54;;;;;;;25.55;21.83;;;;;;;;;;3576793;40;20754;-71
2021/04/29 06:04:20;;;;;;;25.10;22.45;;;;;;;;;;3572285;40;20490;-70
2021/04/29 06:06:48;;;;;;;25.05;22.00;;;;;;;;;;3573624;40;20384;-71
2021/04/29 06:09:15;;;;;;;24.45;21.88;;;;;;;;;;3575088;40;20391;-71
2021/04/29 06:11:42;;;;;;;26.25;23.45;;;;;;;;;;3570696;40;20403;-71
2021/04/29 06:14:10;;;;;;;25.08;22.48;;;;;;;;;;3566877;40;20384;-71
2021/04/29 06:16:36;;;;;;;26.07;22.13;;;;;;;;;;3574703;40;20376;-71
2021/04/29 06:19:04;;;;;;;26.60;22.08;;;;;;;;;;3576627;40;20460;-70
2021/04/29 06:21:30;;;;;;;26.30;23.33;;;;;;;;;;3576438;40;20707;-70
2021/04/29 06:23:57;;;;;;;28.02;24.27;;;;;;;;;;3576740;40;20788;-71
2021/04/29 06:26:23;;;;;;;25.02;22.33;;;;;;;;;;3576548;40;20391;-71
2021/04/29 06:28:49;;;;;;;25.73;22.85;;;;;;;;;;3573469;40;20408;-71
2021/04/29 06:31:16;;;;;;;26.00;22.88;;;;;;;;;;3571873;40;20417;-71
2021/04/29 06:33:42;;;;;;;24.38;21.55;;;;;;;;;;3574771;40;20623;-71
2021/04/29 06:36:09;;;;;;;27.40;24.30;;;;;;;;;;3572620;40;20471;-70
2021/04/29 06:38:36;;;;;;;27.47;23.40;;;;;;;;;;3570875;40;20394;-71
2021/04/29 06:41:03;;;;;;;27.50;24.00;;;;;;;;;;3569853;40;20627;-71
2021/04/29 06:43:29;;;;;;;28.52;24.58;;;;;;;;;;3576079;40;20630;-71
2021/04/29 06:45:55;;;;;;;30.00;24.58;;;;;;;;;;3567830;40;20911;-71
2021/04/29 06:48:21;;;;;;;28.10;23.58;;;;;;;;;;3576200;40;20690;-71
2021/04/29 06:50:49;;;;;;;28.23;25.05;;;;;;;;;;3576444;40;20474;-71
2021/04/29 06:53:16;;;;;;;26.02;22.92;;;;;;;;;;3569245;40;20850;-71
2021/04/29 06:55:42;;;;;;;28.58;24.70;;;;;;;;;;3576359;40;20383;-71
2021/04/29 06:58:09;;;;;;;29.00;25.42;;;;;;;;;;3576186;40;20386;-71
2021/04/29 07:00:36;;;;;;;28.33;23.80;;;;;;;;;;3573472;40;20741;-71
2021/04/29 07:03:02;;;;;;;28.88;25.83;;;;;;;;;;3576032;40;20384;-70
2021/04/29 07:05:28;;;;;;;29.23;25.42;;;;;;;;;;3572790;40;20685;-71
2021/04/29 07:07:55;;;;;;;28.48;25.05;;;;;;;;;;3572448;40;20400;-71
2021/04/29 07:10:23;;;;;;;28.08;25.08;;;;;;;;;;3571698;40;20420;-70
2021/04/29 07:12:49;;;;;;;29.67;25.02;;;;;;;;;;3572636;40;20394;-70
2021/04/29 07:15:16;;;;;;;27.80;24.07;;;;;;;;;;3576190;40;20372;-71
2021/04/29 07:17:42;;;;;;;25.35;22.55;;;;;;;;;;3576125;40;20396;-71
2021/04/29 07:20:09;;;;;;;26.80;22.40;;;;;;;;;;3576009;40;20383;-71
2021/04/29 07:22:36;;;;;;;25.45;21.27;;;;;;;;;;3576125;40;20395;-70
2021/04/29 07:25:02;;;;;;;25.35;22.58;;;;;;;;;;3574853;40;20392;-71
2021/04/29 07:27:29;;;;;;;25.98;22.17;;;;;;;;;;3576194;40;20384;-71
2021/04/29 07:29:56;;;;;;;26.30;22.23;;;;;;;;;;3566988;40;20797;-70
2021/04/29 07:32:22;;;;;;;24.40;21.58;;;;;;;;;;3566543;40;20408;-71
2021/04/29 07:34:48;;;;;;;23.88;21.30;;;;;;;;;;3575920;40;20771;-70
2021/04/29 07:37:14;;;;;;;24.97;22.27;;;;;;;;;;3575900;40;20392;-71
2021/04/29 07:39:40;;;;;;;26.05;22.25;;;;;;;;;;3575912;40;20772;-71
2021/04/29 07:42:07;;;;;;;28.15;22.88;;;;;;;;;;3568928;40;20390;-71
2021/04/29 07:44:34;;;;;;;23.92;20.55;;;;;;;;;;3575839;40;20407;-71
2021/04/29 07:47:00;;;;;;;24.05;21.30;;;;;;;;;;3576152;40;20384;-71
2021/04/29 07:49:27;;;;;;;24.67;21.20;;;;;;;;;;3576046;40;20502;-71
2021/04/29 07:51:54;;;;;;;23.13;20.40;;;;;;;;;;3571719;40;20669;-70
2021/04/29 07:54:20;;;;;;;26.92;22.17;;;;;;;;;;3572964;40;20663;-71
2021/04/29 07:56:47;;;;;;;25.77;21.43;;;;;;;;;;3572564;40;20524;-71
2021/04/29 07:59:14;;;;;;;25.40;21.70;;;;;;;;;;3575812;40;20373;-71
2021/04/29 08:01:42;;;;;;;25.85;21.98;;;;;;;;;;3573291;40;20380;-71
2021/04/29 08:04:08;;;;;;;24.30;20.85;;;;;;;;;;3570138;40;20420;-71
2021/04/29 08:06:34;;;;;;;25.80;22.58;;;;;;;;;;3577403;40;20569;-71
2021/04/29 08:09:00;;;;;;;25.58;22.38;;;;;;;;;;3577315;40;20461;-71
2021/04/29 08:11:27;;;;;;;26.92;22.65;;;;;;;;;;3576701;40;20395;-71
2021/04/29 08:13:54;;;;;;;30.15;24.63;;;;;;;;;;3562184;40;20403;-71
2021/04/29 08:16:20;;;;;;;26.75;22.92;;;;;;;;;;3570647;40;20391;-70
2021/04/29 08:18:49;;;;;;;26.98;23.25;;;;;;;;;;3567837;40;20485;-71
2021/04/29 08:21:15;;;;;;;27.55;23.70;;;;;;;;;;3577366;40;20379;-71
2021/04/29 08:23:41;;;;;;;27.60;23.23;;;;;;;;;;3577131;40;20515;-71
2021/04/29 08:26:07;;;;;;;26.70;22.48;;;;;;;;;;3577283;40;20388;-71
2021/04/29 08:28:34;;;;;;;26.90;23.95;;;;;;;;;;3577300;40;20427;-71
2021/04/29 08:31:00;;;;;;;28.40;24.60;;;;;;;;;;3576807;40;20372;-71
2021/04/29 08:33:26;;;;;;;29.25;24.23;;;;;;;;;;3571150;40;20760;-71
2021/04/29 08:35:53;;;;;;;28.58;24.20;;;;;;;;;;3577365;40;20391;-71
2021/04/29 08:38:19;;;;;;;30.80;26.43;;;;;;;;;;3576903;40;20380;-71
2021/04/29 08:40:46;;;;;;;36.78;29.85;;;;;;;;;;3576965;40;20400;-71
2021/04/29 08:43:12;;;;;;;36.03;29.38;;;;;;;;;;3567433;40;20407;-71
2021/04/29 08:45:44;;;;;;;36.15;29.90;;;;;;;;;;3574528;40;20392;-71
2021/04/29 08:48:10;;;;;;;33.63;28.35;;;;;;;;;;3565159;40;20689;-71
2021/04/29 08:50:37;;;;;;;32.87;27.87;;;;;;;;;;3575804;40;20375;-71
2021/04/29 08:53:04;;;;;;;31.92;26.65;;;;;;;;;;3564787;40;20866;-70
2021/04/29 08:55:30;;;;;;;38.55;31.20;;;;;;;;;;3573243;40;20478;-70
2021/04/29 08:57:56;;;;;;;32.53;28.85;;;;;;;;;;3575344;40;20513;-70
2021/04/29 09:00:23;;;;;;;32.33;27.33;;;;;;;;;;3576636;40;20396;-71
2021/04/29 09:02:49;;;;;;;39.65;31.90;;;;;;;;;;3575289;40;20649;-71
2021/04/29 09:05:17;;;;;;;37.38;30.83;;;;;;;;;;3576691;40;20394;-71
2021/04/29 09:07:53;;;;;;;33.63;28.17;;;;;;;;;;3576607;40;20403;-72
2021/04/29 09:10:24;;;;;;;38.47;30.80;;;;;;;;;;3571293;40;20362;-71
2021/04/29 09:12:50;;;;;;;29.50;26.27;;;;;;;;;;3576675;40;20682;-71
2021/04/29 09:15:23;;;;;;;32.13;27.43;;;;;;;;;;3576625;40;20372;-71
2021/04/29 09:17:51;;;;;;;37.00;30.37;;;;;;;;;;3576968;40;20383;-72
2021/04/29 09:20:21;;;;;;;32.97;27.38;;;;;;;;;;3576504;40;20369;-71
2021/04/29 09:22:57;;;;;;;29.30;26.00;;;;;;;;;;3576621;40;20481;-71
2021/04/29 09:25:24;;;;;;;30.73;27.35;;;;;;;;;;3576620;40;20618;-72
2021/04/29 09:27:52;;;;;;;29.48;26.08;;;;;;;;;;3576717;40;20380;-71
2021/04/29 09:30:23;;;;;;;32.33;28.15;;;;;;;;;;3573589;40;20392;-72
2021/04/29 09:32:49;;;;;;;36.50;29.70;;;;;;;;;;3576513;40;20461;-71
2021/04/29 09:35:17;;;;;;;37.30;30.63;;;;;;;;;;3572812;40;20703;-72
2021/04/29 09:37:44;;;;;;;38.00;31.13;;;;;;;;;;3576496;40;20641;-71
2021/04/29 09:40:19;;;;;;;37.93;31.33;;;;;;;;;;3573540;40;20753;-72
2021/04/29 09:42:47;;;;;;;38.35;31.75;;;;;;;;;;3571135;40;20380;-72
2021/04/29 09:45:17;;;;;;;39.57;31.70;;;;;;;;;;3576443;40;20731;-71
2021/04/29 09:47:53;;;;;;;32.70;27.63;;;;;;;;;;3561175;40;20447;-72
2021/04/29 09:50:22;;;;;;;36.17;31.75;;;;;;;;;;3574243;40;20380;-72
2021/04/29 09:52:57;;;;;;;39.45;31.08;;;;;;;;;;3570467;40;20484;-72
2021/04/29 09:55:26;;;;;;;38.13;31.80;;;;;;;;;;3575224;40;20388;-72
2021/04/29 09:58:01;;;;;;;37.70;31.90;;;;;;;;;;3571435;40;20412;-73
2021/04/29 10:00:29;;;;;;;38.93;32.13;;;;;;;;;;3552060;40;20403;-70
2021/04/29 10:02:55;;;;;;;51.33;42.10;;;;;;;;;;3554825;40;20417;-72
2021/04/29 10:05:21;;;;;;;42.40;34.83;;;;;;;;;;3554641;40;20720;-72
2021/04/29 10:07:48;;;;;;;35.72;29.80;;;;;;;;;;3554765;40;20395;-71
2021/04/29 10:10:14;;;;;;;43.03;34.92;;;;;;;;;;3554686;40;20415;-72
2021/04/29 10:12:41;;;;;;;36.95;31.02;;;;;;;;;;3552856;40;20769;-72
2021/04/29 10:15:08;;;;;;;31.47;27.03;;;;;;;;;;3554723;40;20716;-71
2021/04/29 10:17:35;;;;;;;36.65;29.13;;;;;;;;;;3555143;40;20412;-72
2021/04/29 10:20:01;;;;;;;35.95;28.98;;;;;;;;;;3554400;40;20518;-71
2021/04/29 10:22:27;;;;;;;30.08;26.25;;;;;;;;;;3554891;40;20378;-72
2021/04/29 10:24:54;;;;;;;34.33;28.23;;;;;;;;;;3554578;40;20380;-71
2021/04/29 10:27:23;;;;;;;30.58;24.95;;;;;;;;;;3552597;40;20442;-72
2021/04/29 10:29:49;;;;;;;30.02;25.38;;;;;;;;;;3555008;40;20371;-72
2021/04/29 10:32:16;;;;;;;27.27;23.95;;;17.30;99.90;;;;;;3569785;40;20441;-72
2021/04/29 10:34:44;;;;;;;29.20;25.73;;;17.50;99.90;;;;;;3572186;40;20412;-72
2021/04/29 10:37:15;;;;;;;31.25;26.50;;;17.40;99.90;;;;;;3574696;40;20415;-72
2021/04/29 10:39:51;;;;;;;30.80;26.17;;;17.10;99.90;;;;;;3574520;40;20764;-72
2021/04/29 10:42:18;;;;;;;30.05;26.75;;;16.80;99.90;;;;;;3576374;40;20463;-72
2021/04/29 10:44:45;;;;;;;27.85;23.02;;;16.90;99.90;;;;;;3575222;40;20403;-71
2021/04/29 10:47:22;;;;;;;29.23;25.43;;;;;;;;;;3569542;40;20415;-72
2021/04/29 10:49:48;;;;;;;29.08;25.50;;;;;;;;;;3570241;40;20429;-71
2021/04/29 10:52:14;;;;;;;28.63;25.40;;;;;;;;;;3565827;40;20408;-72
2021/04/29 10:54:48;;;;;;;32.22;26.38;;;;;;;;;;3573546;40;20813;-72
2021/04/29 10:57:16;;;;;;;29.88;25.33;;;;;;;;;;3573439;40;20368;-72
2021/04/29 10:59:43;;;;;;;27.42;24.45;;;;;;;;;;3573176;40;20415;-72
2021/04/29 11:02:24;;;;;;;27.23;23.97;;;;;;;;;;3575522;40;20779;-72
2021/04/29 11:04:52;;;;;;;29.30;24.83;;;;;;;;;;3574098;40;20467;-72
2021/04/29 11:07:19;;;;;;;28.13;24.03;;;;;;;;;;3563787;40;20404;-72
2021/04/29 11:09:56;;;;;;;28.00;23.77;;;;;;;;;;3575205;40;20404;-71
2021/04/29 11:12:22;;;;;;;27.08;22.27;;;;;;;;;;3572670;40;20374;-72
2021/04/29 11:14:48;;;;;;;29.20;24.13;;;;;;;;;;3575686;40;20372;-72
2021/04/29 11:17:18;;;;;;;26.00;21.93;;;;;;;;;;3574672;40;20398;-72
2021/04/29 11:19:47;;;;;;;27.88;23.55;;;;;;;;;;3574460;40;20387;-72
2021/04/29 11:22:15;;;;;;;27.60;22.85;;;;;;;;;;3574313;40;20472;-72
2021/04/29 11:24:42;;;;;;;26.95;22.58;;;;;;;;;;3575887;40;20435;-73
2021/04/29 11:27:19;;;;;;;29.43;23.53;;;;;;;;;;3575052;40;20476;-72
2021/04/29 11:29:45;;;;;;;24.83;20.85;;;;;;;;;;3572979;40;20436;-71
2021/04/29 11:32:11;;;;;;;24.80;21.30;;;17.10;99.90;;;;;;3573922;40;20453;-70
2021/04/29 11:34:45;;;;;;;27.73;23.10;;;17.70;99.90;;;;;;3571474;40;20433;-70
2021/04/29 11:37:13;;;;;;;31.58;26.13;;;17.60;99.90;;;;;;3574677;40;20383;-73
2021/04/29 11:39:40;;;;;;;29.30;24.98;;;17.70;99.90;;;;;;3567267;40;20400;-72
2021/04/29 11:42:09;;;;;;;27.08;23.05;;;17.80;99.90;;;;;;3575528;40;20756;-72
2021/04/29 11:44:35;;;;;;;30.15;24.88;;;17.80;99.90;;;;;;3574762;40;20861;-73
2021/04/29 11:47:12;;;;;;;27.75;24.00;;;17.70;99.90;;;;;;3575718;40;20398;-72
2021/04/29 11:49:39;;;;;;;28.75;24.15;;;17.80;99.90;;;;;;3575776;40;20671;-72
2021/04/29 11:52:05;;;;;;;29.50;25.02;;;17.70;99.90;;;;;;3574791;40;20398;-72
2021/04/29 11:54:32;;;;;;;27.80;23.13;;;17.60;99.90;;;;;;3572836;40;20642;-72
2021/04/29 11:57:01;;;;;;;27.70;23.70;;;;;;;;;;3575968;40;20461;-72
2021/04/29 11:59:29;;;;;;;30.88;25.30;;;;;;;;;;3575980;40;20725;-72
2021/04/29 12:01:56;;;;;;;27.00;23.67;;;;;;;;;;3577350;40;20383;-72
2021/04/29 12:04:23;;;;;;;28.27;24.45;;;;;;;;;;3577170;40;20521;-72
2021/04/29 12:06:50;;;;;;;24.70;21.88;;;;;;;;;;3577048;40;20374;-72
2021/04/29 12:09:16;;;;;;;26.25;22.90;;;;;;;;;;3577304;40;20375;-71
2021/04/29 12:11:44;;;;;;;25.85;22.05;;;;;;;;;;3575860;40;20398;-72
2021/04/29 12:14:13;;;;;;;27.10;23.48;;;;;;;;;;3577377;40;20392;-72
2021/04/29 12:16:39;;;;;;;26.40;23.60;;;;;;;;;;3577255;40;20379;-72
2021/04/29 12:19:05;;;;;;;25.02;22.13;;;;;;;;;;3577408;40;20753;-71
2021/04/29 12:21:33;;;;;;;25.27;21.40;;;;;;;;;;3567473;40;20466;-72
2021/04/29 12:24:01;;;;;;;24.63;21.95;;;;;;;;;;3575867;40;20457;-72
2021/04/29 12:26:32;;;;;;;30.60;25.27;;;;;;;;;;3567908;40;20396;-72
2021/04/29 12:29:06;;;;;;;29.43;25.53;;;17.50;99.90;;;;;;3563048;40;20479;-72
2021/04/29 12:31:32;;;;;;;31.33;25.95;;;16.60;99.90;;;;;;3576745;40;20412;-72
2021/04/29 12:34:06;;;;;;;32.08;26.77;;;;;;;;;;3574030;40;20741;-72
2021/04/29 12:36:32;;;;;;;30.63;25.08;;;;;;;;;;3576979;40;20376;-72
2021/04/29 12:38:58;;;;;;;27.93;23.73;;;;;;;;;;3576949;40;20387;-72
2021/04/29 12:41:26;;;;;;;36.22;28.92;;;;;;;;;;3576420;40;20385;-72
2021/04/29 12:43:56;;;;;;;34.70;27.85;;;;;;;;;;3576825;40;20403;-72
2021/04/29 12:46:30;;;;;;;34.35;28.65;;;;;;;;;;3574623;40;20384;-72
2021/04/29 12:48:57;;;;;;;36.78;29.60;;;;;;;;;;3576261;40;20420;-72
2021/04/29 12:51:23;;;;;;;35.07;28.73;;;;;;;;;;3576257;40;20384;-72
2021/04/29 12:53:53;;;;;;;37.75;30.70;;;;;;;;;;3576305;40;20372;-71
2021/04/29 12:56:26;;;;;;;36.75;31.10;;;;;;;;;;3577047;40;20372;-71
2021/04/29 12:58:52;;;;;;;39.20;32.00;;;;;;;;;;3576286;40;20486;-72
2021/04/29 13:01:19;;;;;;;35.50;29.95;;;;;;;;;;3577018;40;20376;-72
2021/04/29 13:03:46;;;;;;;38.35;30.98;;;;;;;;;;3571676;40;20397;-71
2021/04/29 13:06:13;;;;;;;37.17;31.00;;;;;;;;;;3566870;40;20403;-71
2021/04/29 13:08:46;;;;;;;39.35;32.80;;;;;;;;;;3570081;40;20385;-71
2021/04/29 13:11:13;;;;;;;37.13;31.57;;;;;;;;;;3574006;40;20368;-72
2021/04/29 13:13:39;;;;;;;42.53;35.30;;;;;;;;;;3573798;40;20378;-71
2021/04/29 13:16:05;;;;;;;40.08;33.42;;;;;;;;;;3572666;40;20376;-71
2021/04/29 13:18:32;;;;;;;33.30;28.35;;;;;;;;;;3576746;40;20379;-71
2021/04/29 13:20:59;;;;;;;38.33;31.87;;;;;;;;;;3576833;40;20377;-71
2021/04/29 13:23:25;;;;;;;31.77;28.05;;;;;;;;;;3576475;40;20390;-71
2021/04/29 13:25:51;;;;;;;36.58;30.15;;;;;;;;;;3576662;40;20469;-71
2021/04/29 13:28:17;;;;;;;36.13;29.40;;;;;;;;;;3566932;40;20494;-71
2021/04/29 13:30:44;;;;;;;36.15;30.35;;;;;;;;;;3576559;40;20387;-71
2021/04/29 13:33:10;;;;;;;35.85;31.23;;;;;;;;;;3571183;40;20436;-71
2021/04/29 13:35:37;;;;;;;35.58;29.83;;;;;;;;;;3572656;40;20661;-71
2021/04/29 13:38:04;;;;;;;35.40;31.13;;;;;;;;;;3575203;40;20380;-71
2021/04/29 13:40:31;;;;;;;36.95;32.45;;;;;;;;;;3571953;40;20403;-71
2021/04/29 13:42:57;;;;;;;42.40;34.03;;;;;;;;;;3564221;40;20530;-71
2021/04/29 13:45:23;;;;;;;36.92;31.77;;;;;;;;;;3565899;40;20659;-71
2021/04/29 13:47:49;;;;;;;34.50;30.30;;;;;;;;;;3572704;40;20408;-71
2021/04/29 13:50:16;;;;;;;41.03;33.28;;;;;;;;;;3576560;40;20526;-71
2021/04/29 13:52:42;;;;;;;40.25;31.85;;;;;;;;;;3572505;40;20380;-71
2021/04/29 13:55:10;;;;;;;40.03;33.47;;;;;;;;;;3576204;40;20866;-71
2021/04/29 13:57:36;;;;;;;40.00;33.53;;;;;;;;;;3573249;40;20380;-71
2021/04/29 14:00:04;;;;;;;42.15;33.92;;;;;;;;;;3575861;40;20392;-70
2021/04/29 14:02:30;;;;;;;46.20;35.17;;;;;;;;;;3573471;40;20487;-72
2021/04/29 14:04:56;;;;;;;42.97;34.17;;;;;;;;;;3576035;40;20419;-71
2021/04/29 14:07:22;;;;;;;39.07;32.47;;;;;;;;;;3576666;40;20414;-71
2021/04/29 14:09:48;;;;;;;40.47;34.20;;;;;;;;;;3573303;40;20364;-71